sensor_id;sensor_type;location;lat;lon;timestamp;P1;durP1;ratioP1;P2;durP2;ratioP2
70322;SDS011;57735;56.264;43.898;2023-02-02T00:00:52;51.13;;;16.83;;
70322;SDS011;57735;56.264;43.898;2023-02-02T00:03:23;44.22;;;16.10;;
70322;SDS011;57735;56.264;43.898;2023-02-02T00:05:54;45.35;;;16.17;;
70322;SDS011;57735;56.264;43.898;2023-02-02T00:08:25;44.35;;;15.40;;
70322;SDS011;57735;56.264;43.898;2023-02-02T00:10:56;45.65;;;15.10;;
70322;SDS011;57735;56.264;43.898;2023-02-02T00:13:26;50.13;;;15.65;;
70322;SDS011;57735;56.264;43.898;2023-02-02T00:15:57;48.40;;;16.20;;
70322;SDS011;57735;56.264;43.898;2023-02-02T00:18:28;42.42;;;15.35;;
70322;SDS011;57735;56.264;43.898;2023-02-02T00:20:59;44.00;;;14.82;;
70322;SDS011;57735;56.264;43.898;2023-02-02T00:23:29;45.28;;;16.25;;
70322;SDS011;57735;56.264;43.898;2023-02-02T00:26:00;47.13;;;15.88;;
70322;SDS011;57735;56.264;43.898;2023-02-02T00:28:31;45.10;;;15.20;;
70322;SDS011;57735;56.264;43.898;2023-02-02T00:31:02;43.67;;;15.27;;
70322;SDS011;57735;56.264;43.898;2023-02-02T00:33:32;43.60;;;16.00;;
70322;SDS011;57735;56.264;43.898;2023-02-02T00:36:06;48.47;;;15.63;;
70322;SDS011;57735;56.264;43.898;2023-02-02T00:38:37;45.70;;;15.68;;
70322;SDS011;57735;56.264;43.898;2023-02-02T00:41:08;49.63;;;16.15;;
70322;SDS011;57735;56.264;43.898;2023-02-02T00:43:38;48.40;;;15.75;;
70322;SDS011;57735;56.264;43.898;2023-02-02T00:46:12;48.30;;;16.15;;
70322;SDS011;57735;56.264;43.898;2023-02-02T00:48:48;46.10;;;16.40;;
70322;SDS011;57735;56.264;43.898;2023-02-02T00:51:21;45.88;;;16.10;;
70322;SDS011;57735;56.264;43.898;2023-02-02T00:53:51;43.85;;;15.90;;
70322;SDS011;57735;56.264;43.898;2023-02-02T00:56:22;49.15;;;16.50;;
70322;SDS011;57735;56.264;43.898;2023-02-02T00:58:55;43.60;;;15.70;;
70322;SDS011;57735;56.264;43.898;2023-02-02T01:01:26;46.10;;;15.55;;
70322;SDS011;57735;56.264;43.898;2023-02-02T01:03:57;49.72;;;18.20;;
70322;SDS011;57735;56.264;43.898;2023-02-02T01:06:29;48.10;;;16.35;;
70322;SDS011;57735;56.264;43.898;2023-02-02T01:08:59;46.38;;;16.58;;
70322;SDS011;57735;56.264;43.898;2023-02-02T01:11:30;50.47;;;17.00;;
70322;SDS011;57735;56.264;43.898;2023-02-02T01:14:03;49.35;;;16.35;;
70322;SDS011;57735;56.264;43.898;2023-02-02T01:16:35;45.58;;;16.48;;
70322;SDS011;57735;56.264;43.898;2023-02-02T01:19:05;50.25;;;15.80;;
70322;SDS011;57735;56.264;43.898;2023-02-02T01:21:36;46.38;;;15.38;;
70322;SDS011;57735;56.264;43.898;2023-02-02T01:24:07;49.22;;;17.25;;
70322;SDS011;57735;56.264;43.898;2023-02-02T01:26:38;46.72;;;15.93;;
70322;SDS011;57735;56.264;43.898;2023-02-02T01:29:09;45.85;;;16.88;;
70322;SDS011;57735;56.264;43.898;2023-02-02T01:31:40;48.70;;;16.15;;
70322;SDS011;57735;56.264;43.898;2023-02-02T01:34:11;46.30;;;16.52;;
70322;SDS011;57735;56.264;43.898;2023-02-02T01:36:42;49.05;;;16.23;;
70322;SDS011;57735;56.264;43.898;2023-02-02T01:39:13;48.13;;;16.30;;
70322;SDS011;57735;56.264;43.898;2023-02-02T01:41:43;47.20;;;16.17;;
70322;SDS011;57735;56.264;43.898;2023-02-02T01:47:42;46.90;;;16.02;;
70322;SDS011;57735;56.264;43.898;2023-02-02T01:50:18;51.78;;;17.98;;
70322;SDS011;57735;56.264;43.898;2023-02-02T01:52:54;45.42;;;16.17;;
70322;SDS011;57735;56.264;43.898;2023-02-02T01:55:28;52.03;;;16.38;;
70322;SDS011;57735;56.264;43.898;2023-02-02T01:58:08;47.92;;;17.27;;
70322;SDS011;57735;56.264;43.898;2023-02-02T02:00:41;44.10;;;16.45;;
70322;SDS011;57735;56.264;43.898;2023-02-02T02:03:15;47.65;;;16.45;;
70322;SDS011;57735;56.264;43.898;2023-02-02T02:06:02;52.38;;;17.60;;
70322;SDS011;57735;56.264;43.898;2023-02-02T02:08:45;51.55;;;17.50;;
70322;SDS011;57735;56.264;43.898;2023-02-02T02:11:22;56.08;;;18.20;;
70322;SDS011;57735;56.264;43.898;2023-02-02T02:13:55;57.05;;;18.48;;
70322;SDS011;57735;56.264;43.898;2023-02-02T02:35:11;48.47;;;17.48;;
70322;SDS011;57735;56.264;43.898;2023-02-02T02:38:06;48.40;;;15.68;;
70322;SDS011;57735;56.264;43.898;2023-02-02T02:40:40;45.85;;;16.38;;
70322;SDS011;57735;56.264;43.898;2023-02-02T02:43:21;47.88;;;16.42;;
70322;SDS011;57735;56.264;43.898;2023-02-02T02:45:57;49.22;;;15.93;;
70322;SDS011;57735;56.264;43.898;2023-02-02T02:48:31;49.15;;;16.52;;
70322;SDS011;57735;56.264;43.898;2023-02-02T02:54:12;45.63;;;16.65;;
70322;SDS011;57735;56.264;43.898;2023-02-02T02:59:56;47.25;;;15.80;;
70322;SDS011;57735;56.264;43.898;2023-02-02T03:08:30;43.58;;;15.02;;
70322;SDS011;57735;56.264;43.898;2023-02-02T03:11:06;42.38;;;15.15;;
70322;SDS011;57735;56.264;43.898;2023-02-02T03:13:42;43.83;;;14.98;;
70322;SDS011;57735;56.264;43.898;2023-02-02T03:16:14;46.78;;;15.38;;
70322;SDS011;57735;56.264;43.898;2023-02-02T03:18:46;40.75;;;15.27;;
70322;SDS011;57735;56.264;43.898;2023-02-02T03:21:19;47.40;;;14.98;;
70322;SDS011;57735;56.264;43.898;2023-02-02T03:23:50;43.88;;;15.73;;
70322;SDS011;57735;56.264;43.898;2023-02-02T03:26:23;45.33;;;13.95;;
70322;SDS011;57735;56.264;43.898;2023-02-02T03:28:55;39.40;;;14.38;;
70322;SDS011;57735;56.264;43.898;2023-02-02T03:31:26;46.60;;;14.75;;
70322;SDS011;57735;56.264;43.898;2023-02-02T03:34:00;43.33;;;15.20;;
70322;SDS011;57735;56.264;43.898;2023-02-02T03:36:31;42.25;;;13.90;;
70322;SDS011;57735;56.264;43.898;2023-02-02T03:39:04;43.28;;;13.50;;
70322;SDS011;57735;56.264;43.898;2023-02-02T03:41:35;40.40;;;14.07;;
70322;SDS011;57735;56.264;43.898;2023-02-02T03:44:06;40.88;;;14.38;;
70322;SDS011;57735;56.264;43.898;2023-02-02T03:46:36;44.42;;;15.45;;
70322;SDS011;57735;56.264;43.898;2023-02-02T03:49:07;40.22;;;14.40;;
70322;SDS011;57735;56.264;43.898;2023-02-02T03:51:40;40.17;;;14.57;;
70322;SDS011;57735;56.264;43.898;2023-02-02T03:54:14;39.67;;;13.10;;
70322;SDS011;57735;56.264;43.898;2023-02-02T03:56:45;40.92;;;13.43;;
70322;SDS011;57735;56.264;43.898;2023-02-02T03:59:18;45.83;;;15.38;;
70322;SDS011;57735;56.264;43.898;2023-02-02T04:01:49;41.35;;;14.45;;
70322;SDS011;57735;56.264;43.898;2023-02-02T04:04:20;39.60;;;14.35;;
70322;SDS011;57735;56.264;43.898;2023-02-02T04:06:50;43.13;;;15.73;;
70322;SDS011;57735;56.264;43.898;2023-02-02T04:09:21;42.92;;;14.25;;
70322;SDS011;57735;56.264;43.898;2023-02-02T04:11:52;41.03;;;14.02;;
70322;SDS011;57735;56.264;43.898;2023-02-02T04:14:23;41.10;;;14.55;;
70322;SDS011;57735;56.264;43.898;2023-02-02T04:16:54;42.55;;;14.80;;
70322;SDS011;57735;56.264;43.898;2023-02-02T04:19:24;40.47;;;14.02;;
70322;SDS011;57735;56.264;43.898;2023-02-02T04:21:55;45.95;;;13.43;;
70322;SDS011;57735;56.264;43.898;2023-02-02T04:24:26;39.65;;;14.07;;
70322;SDS011;57735;56.264;43.898;2023-02-02T04:26:57;43.00;;;15.43;;
70322;SDS011;57735;56.264;43.898;2023-02-02T04:29:28;45.80;;;14.93;;
70322;SDS011;57735;56.264;43.898;2023-02-02T04:31:58;39.33;;;14.40;;
70322;SDS011;57735;56.264;43.898;2023-02-02T04:34:29;40.88;;;15.10;;
70322;SDS011;57735;56.264;43.898;2023-02-02T04:37:01;45.33;;;14.10;;
70322;SDS011;57735;56.264;43.898;2023-02-02T04:39:31;42.33;;;14.40;;
70322;SDS011;57735;56.264;43.898;2023-02-02T04:42:02;42.75;;;14.45;;
70322;SDS011;57735;56.264;43.898;2023-02-02T04:44:33;45.35;;;16.10;;
70322;SDS011;57735;56.264;43.898;2023-02-02T04:47:04;40.78;;;15.13;;
70322;SDS011;57735;56.264;43.898;2023-02-02T04:49:35;46.10;;;14.85;;
70322;SDS011;57735;56.264;43.898;2023-02-02T04:52:11;45.25;;;15.88;;
70322;SDS011;57735;56.264;43.898;2023-02-02T04:54:42;54.30;;;17.05;;
70322;SDS011;57735;56.264;43.898;2023-02-02T04:57:17;50.78;;;16.63;;
70322;SDS011;57735;56.264;43.898;2023-02-02T04:59:48;48.00;;;15.57;;
70322;SDS011;57735;56.264;43.898;2023-02-02T05:02:18;47.13;;;15.02;;
70322;SDS011;57735;56.264;43.898;2023-02-02T05:04:49;46.33;;;15.98;;
70322;SDS011;57735;56.264;43.898;2023-02-02T05:07:20;48.22;;;14.73;;
70322;SDS011;57735;56.264;43.898;2023-02-02T05:09:51;39.88;;;13.82;;
70322;SDS011;57735;56.264;43.898;2023-02-02T05:12:21;46.30;;;15.25;;
70322;SDS011;57735;56.264;43.898;2023-02-02T05:14:55;41.17;;;14.38;;
70322;SDS011;57735;56.264;43.898;2023-02-02T05:17:26;44.08;;;14.77;;
70322;SDS011;57735;56.264;43.898;2023-02-02T05:19:57;49.33;;;16.63;;
70322;SDS011;57735;56.264;43.898;2023-02-02T05:22:28;46.60;;;15.90;;
70322;SDS011;57735;56.264;43.898;2023-02-02T05:24:58;49.70;;;15.52;;
70322;SDS011;57735;56.264;43.898;2023-02-02T05:27:29;35.75;;;13.25;;
70322;SDS011;57735;56.264;43.898;2023-02-02T05:30:00;37.63;;;13.77;;
70322;SDS011;57735;56.264;43.898;2023-02-02T05:32:32;40.88;;;15.02;;
70322;SDS011;57735;56.264;43.898;2023-02-02T05:35:03;41.70;;;15.40;;
70322;SDS011;57735;56.264;43.898;2023-02-02T05:37:34;44.25;;;15.82;;
70322;SDS011;57735;56.264;43.898;2023-02-02T05:40:08;47.60;;;15.00;;
70322;SDS011;57735;56.264;43.898;2023-02-02T05:42:39;43.45;;;14.40;;
70322;SDS011;57735;56.264;43.898;2023-02-02T05:45:10;43.88;;;15.80;;
70322;SDS011;57735;56.264;43.898;2023-02-02T05:47:41;40.20;;;13.52;;
70322;SDS011;57735;56.264;43.898;2023-02-02T05:50:15;47.65;;;15.52;;
70322;SDS011;57735;56.264;43.898;2023-02-02T05:52:46;43.25;;;14.98;;
70322;SDS011;57735;56.264;43.898;2023-02-02T05:55:18;43.97;;;15.27;;
70322;SDS011;57735;56.264;43.898;2023-02-02T05:57:49;44.15;;;15.88;;
70322;SDS011;57735;56.264;43.898;2023-02-02T06:00:20;49.20;;;15.57;;
70322;SDS011;57735;56.264;43.898;2023-02-02T06:02:51;44.88;;;14.63;;
70322;SDS011;57735;56.264;43.898;2023-02-02T06:05:22;49.25;;;16.15;;
70322;SDS011;57735;56.264;43.898;2023-02-02T06:07:54;47.40;;;14.73;;
70322;SDS011;57735;56.264;43.898;2023-02-02T06:10:27;47.22;;;14.55;;
70322;SDS011;57735;56.264;43.898;2023-02-02T06:13:00;48.92;;;15.65;;
70322;SDS011;57735;56.264;43.898;2023-02-02T06:15:31;46.20;;;16.20;;
70322;SDS011;57735;56.264;43.898;2023-02-02T06:18:02;47.58;;;15.43;;
70322;SDS011;57735;56.264;43.898;2023-02-02T06:20:36;44.60;;;15.73;;
70322;SDS011;57735;56.264;43.898;2023-02-02T06:23:07;44.05;;;16.92;;
70322;SDS011;57735;56.264;43.898;2023-02-02T06:25:38;45.25;;;15.43;;
70322;SDS011;57735;56.264;43.898;2023-02-02T06:28:09;39.65;;;13.57;;
70322;SDS011;57735;56.264;43.898;2023-02-02T06:30:40;46.33;;;16.05;;
70322;SDS011;57735;56.264;43.898;2023-02-02T06:33:11;41.30;;;14.38;;
70322;SDS011;57735;56.264;43.898;2023-02-02T06:35:41;39.85;;;14.52;;
70322;SDS011;57735;56.264;43.898;2023-02-02T06:38:12;43.33;;;15.65;;
70322;SDS011;57735;56.264;43.898;2023-02-02T06:40:45;42.65;;;16.67;;
70322;SDS011;57735;56.264;43.898;2023-02-02T06:43:16;39.55;;;14.95;;
70322;SDS011;57735;56.264;43.898;2023-02-02T06:45:48;43.17;;;14.00;;
70322;SDS011;57735;56.264;43.898;2023-02-02T06:48:19;44.70;;;14.55;;
70322;SDS011;57735;56.264;43.898;2023-02-02T06:50:50;42.53;;;14.85;;
70322;SDS011;57735;56.264;43.898;2023-02-02T06:53:20;38.28;;;14.63;;
70322;SDS011;57735;56.264;43.898;2023-02-02T06:55:55;41.55;;;15.20;;
70322;SDS011;57735;56.264;43.898;2023-02-02T06:58:32;47.67;;;15.65;;
70322;SDS011;57735;56.264;43.898;2023-02-02T07:01:23;45.85;;;16.77;;
70322;SDS011;57735;56.264;43.898;2023-02-02T07:03:54;43.10;;;16.80;;
70322;SDS011;57735;56.264;43.898;2023-02-02T07:06:26;41.50;;;15.93;;
70322;SDS011;57735;56.264;43.898;2023-02-02T07:08:59;44.83;;;16.05;;
70322;SDS011;57735;56.264;43.898;2023-02-02T07:11:30;47.75;;;16.00;;
70322;SDS011;57735;56.264;43.898;2023-02-02T07:14:02;40.53;;;15.10;;
70322;SDS011;57735;56.264;43.898;2023-02-02T07:16:33;40.03;;;16.05;;
70322;SDS011;57735;56.264;43.898;2023-02-02T07:19:03;41.22;;;15.55;;
70322;SDS011;57735;56.264;43.898;2023-02-02T07:21:34;43.25;;;15.60;;
70322;SDS011;57735;56.264;43.898;2023-02-02T07:24:05;45.70;;;15.23;;
70322;SDS011;57735;56.264;43.898;2023-02-02T07:26:36;44.25;;;15.38;;
70322;SDS011;57735;56.264;43.898;2023-02-02T07:29:09;48.05;;;15.23;;
70322;SDS011;57735;56.264;43.898;2023-02-02T07:31:42;42.97;;;16.58;;
70322;SDS011;57735;56.264;43.898;2023-02-02T07:34:13;45.25;;;14.88;;
70322;SDS011;57735;56.264;43.898;2023-02-02T07:36:44;42.42;;;14.00;;
70322;SDS011;57735;56.264;43.898;2023-02-02T07:39:15;45.80;;;16.52;;
70322;SDS011;57735;56.264;43.898;2023-02-02T07:41:46;39.40;;;13.73;;
70322;SDS011;57735;56.264;43.898;2023-02-02T07:44:16;38.45;;;13.98;;
70322;SDS011;57735;56.264;43.898;2023-02-02T07:46:48;40.88;;;13.95;;
70322;SDS011;57735;56.264;43.898;2023-02-02T07:49:18;38.15;;;14.95;;
70322;SDS011;57735;56.264;43.898;2023-02-02T07:51:49;47.67;;;15.68;;
70322;SDS011;57735;56.264;43.898;2023-02-02T07:54:20;41.78;;;15.93;;
70322;SDS011;57735;56.264;43.898;2023-02-02T07:56:51;43.65;;;13.63;;
70322;SDS011;57735;56.264;43.898;2023-02-02T07:59:22;41.17;;;14.43;;
70322;SDS011;57735;56.264;43.898;2023-02-02T08:01:55;41.63;;;14.65;;
70322;SDS011;57735;56.264;43.898;2023-02-02T08:04:26;49.10;;;15.60;;
70322;SDS011;57735;56.264;43.898;2023-02-02T08:06:57;49.97;;;15.90;;
70322;SDS011;57735;56.264;43.898;2023-02-02T08:09:28;40.63;;;15.57;;
70322;SDS011;57735;56.264;43.898;2023-02-02T08:11:58;44.03;;;14.93;;
70322;SDS011;57735;56.264;43.898;2023-02-02T08:14:31;41.50;;;14.07;;
70322;SDS011;57735;56.264;43.898;2023-02-02T08:17:02;42.92;;;14.73;;
70322;SDS011;57735;56.264;43.898;2023-02-02T08:19:33;38.05;;;14.15;;
70322;SDS011;57735;56.264;43.898;2023-02-02T08:22:06;37.03;;;13.23;;
70322;SDS011;57735;56.264;43.898;2023-02-02T08:24:39;39.00;;;14.68;;
70322;SDS011;57735;56.264;43.898;2023-02-02T08:27:12;43.15;;;15.57;;
70322;SDS011;57735;56.264;43.898;2023-02-02T08:29:45;41.15;;;13.48;;
70322;SDS011;57735;56.264;43.898;2023-02-02T08:32:16;40.08;;;14.77;;
70322;SDS011;57735;56.264;43.898;2023-02-02T08:34:48;40.15;;;15.52;;
70322;SDS011;57735;56.264;43.898;2023-02-02T08:37:21;40.03;;;13.90;;
70322;SDS011;57735;56.264;43.898;2023-02-02T08:39:58;36.85;;;12.75;;
70322;SDS011;57735;56.264;43.898;2023-02-02T08:42:31;35.15;;;11.90;;
70322;SDS011;57735;56.264;43.898;2023-02-02T08:45:02;38.95;;;13.48;;
70322;SDS011;57735;56.264;43.898;2023-02-02T08:47:34;38.25;;;13.30;;
70322;SDS011;57735;56.264;43.898;2023-02-02T08:50:04;49.67;;;16.90;;
70322;SDS011;57735;56.264;43.898;2023-02-02T08:52:35;46.50;;;15.52;;
70322;SDS011;57735;56.264;43.898;2023-02-02T08:55:08;50.08;;;16.52;;
70322;SDS011;57735;56.264;43.898;2023-02-02T08:57:39;72.40;;;22.90;;
70322;SDS011;57735;56.264;43.898;2023-02-02T09:00:10;67.75;;;23.65;;
70322;SDS011;57735;56.264;43.898;2023-02-02T09:02:42;61.78;;;21.02;;
70322;SDS011;57735;56.264;43.898;2023-02-02T09:05:12;66.97;;;22.77;;
70322;SDS011;57735;56.264;43.898;2023-02-02T09:07:43;50.53;;;17.05;;
70322;SDS011;57735;56.264;43.898;2023-02-02T09:10:16;52.85;;;18.23;;
70322;SDS011;57735;56.264;43.898;2023-02-02T09:12:47;54.08;;;20.83;;
70322;SDS011;57735;56.264;43.898;2023-02-02T09:15:18;48.70;;;17.88;;
70322;SDS011;57735;56.264;43.898;2023-02-02T09:17:50;58.60;;;23.58;;
70322;SDS011;57735;56.264;43.898;2023-02-02T09:20:21;60.42;;;24.92;;
70322;SDS011;57735;56.264;43.898;2023-02-02T09:22:54;71.10;;;25.65;;
70322;SDS011;57735;56.264;43.898;2023-02-02T09:25:26;52.55;;;20.38;;
70322;SDS011;57735;56.264;43.898;2023-02-02T09:27:57;50.28;;;20.75;;
70322;SDS011;57735;56.264;43.898;2023-02-02T09:30:29;56.38;;;19.42;;
70322;SDS011;57735;56.264;43.898;2023-02-02T09:32:59;55.50;;;20.13;;
70322;SDS011;57735;56.264;43.898;2023-02-02T09:35:30;67.28;;;25.02;;
70322;SDS011;57735;56.264;43.898;2023-02-02T09:38:01;84.53;;;30.15;;
70322;SDS011;57735;56.264;43.898;2023-02-02T09:40:33;74.22;;;30.48;;
70322;SDS011;57735;56.264;43.898;2023-02-02T09:46:09;85.35;;;31.15;;
70322;SDS011;57735;56.264;43.898;2023-02-02T09:49:00;87.75;;;35.13;;
70322;SDS011;57735;56.264;43.898;2023-02-02T09:51:36;83.97;;;30.77;;
70322;SDS011;57735;56.264;43.898;2023-02-02T09:54:19;61.28;;;21.63;;
70322;SDS011;57735;56.264;43.898;2023-02-02T09:56:54;59.60;;;21.77;;
70322;SDS011;57735;56.264;43.898;2023-02-02T09:59:30;77.38;;;30.15;;
70322;SDS011;57735;56.264;43.898;2023-02-02T10:02:17;87.18;;;33.00;;
70322;SDS011;57735;56.264;43.898;2023-02-02T10:04:59;94.75;;;35.72;;
70322;SDS011;57735;56.264;43.898;2023-02-02T10:07:37;86.18;;;30.75;;
70322;SDS011;57735;56.264;43.898;2023-02-02T10:13:26;52.60;;;17.70;;
70322;SDS011;57735;56.264;43.898;2023-02-02T10:16:06;49.60;;;16.30;;
70322;SDS011;57735;56.264;43.898;2023-02-02T10:24:02;50.03;;;17.70;;
70322;SDS011;57735;56.264;43.898;2023-02-02T10:26:37;64.93;;;24.00;;
70322;SDS011;57735;56.264;43.898;2023-02-02T10:29:25;92.32;;;34.55;;
70322;SDS011;57735;56.264;43.898;2023-02-02T10:35:16;96.95;;;37.50;;
70322;SDS011;57735;56.264;43.898;2023-02-02T10:46:32;47.72;;;17.38;;
70322;SDS011;57735;56.264;43.898;2023-02-02T10:51:51;45.75;;;16.65;;
70322;SDS011;57735;56.264;43.898;2023-02-02T10:54:36;55.67;;;18.60;;
70322;SDS011;57735;56.264;43.898;2023-02-02T10:57:15;57.13;;;18.40;;
70322;SDS011;57735;56.264;43.898;2023-02-02T11:00:05;66.88;;;25.23;;
70322;SDS011;57735;56.264;43.898;2023-02-02T11:02:46;51.15;;;21.80;;
70322;SDS011;57735;56.264;43.898;2023-02-02T11:05:26;69.82;;;29.48;;
70322;SDS011;57735;56.264;43.898;2023-02-02T11:10:51;54.65;;;19.50;;
70322;SDS011;57735;56.264;43.898;2023-02-02T11:13:29;54.35;;;18.95;;
70322;SDS011;57735;56.264;43.898;2023-02-02T11:18:48;45.10;;;14.25;;
70322;SDS011;57735;56.264;43.898;2023-02-02T11:21:30;37.38;;;12.88;;
70322;SDS011;57735;56.264;43.898;2023-02-02T11:24:04;41.88;;;13.52;;
70322;SDS011;57735;56.264;43.898;2023-02-02T11:29:23;39.15;;;14.48;;
70322;SDS011;57735;56.264;43.898;2023-02-02T11:32:18;41.90;;;14.68;;
70322;SDS011;57735;56.264;43.898;2023-02-02T11:43:00;39.13;;;15.70;;
70322;SDS011;57735;56.264;43.898;2023-02-02T11:45:40;46.40;;;16.65;;
70322;SDS011;57735;56.264;43.898;2023-02-02T11:48:18;34.00;;;13.93;;
70322;SDS011;57735;56.264;43.898;2023-02-02T11:50:52;34.03;;;12.95;;
70322;SDS011;57735;56.264;43.898;2023-02-02T11:56:16;38.60;;;13.27;;
70322;SDS011;57735;56.264;43.898;2023-02-02T11:58:53;56.47;;;14.63;;
70322;SDS011;57735;56.264;43.898;2023-02-02T12:01:33;37.97;;;13.93;;
70322;SDS011;57735;56.264;43.898;2023-02-02T12:06:46;42.45;;;15.63;;
70322;SDS011;57735;56.264;43.898;2023-02-02T12:09:21;37.95;;;15.18;;
70322;SDS011;57735;56.264;43.898;2023-02-02T12:11:59;48.15;;;16.05;;
70322;SDS011;57735;56.264;43.898;2023-02-02T12:14:39;37.58;;;14.63;;
70322;SDS011;57735;56.264;43.898;2023-02-02T12:33:52;52.38;;;20.30;;
70322;SDS011;57735;56.264;43.898;2023-02-02T12:45:50;37.95;;;15.88;;
70322;SDS011;57735;56.264;43.898;2023-02-02T12:51:39;65.57;;;27.10;;
70322;SDS011;57735;56.264;43.898;2023-02-02T12:54:37;57.80;;;23.58;;
70322;SDS011;57735;56.264;43.898;2023-02-02T13:00:18;49.17;;;19.48;;
70322;SDS011;57735;56.264;43.898;2023-02-02T13:03:00;46.55;;;16.73;;
70322;SDS011;57735;56.264;43.898;2023-02-02T13:08:53;29.10;;;11.52;;
70322;SDS011;57735;56.264;43.898;2023-02-02T13:14:16;40.08;;;12.10;;
70322;SDS011;57735;56.264;43.898;2023-02-02T13:17:47;29.75;;;12.38;;
70322;SDS011;57735;56.264;43.898;2023-02-02T13:20:04;27.55;;;11.13;;
70322;SDS011;57735;56.264;43.898;2023-02-02T13:22:46;33.03;;;13.23;;
70322;SDS011;57735;56.264;43.898;2023-02-02T13:25:29;31.55;;;11.75;;
70322;SDS011;57735;56.264;43.898;2023-02-02T13:28:03;32.67;;;13.18;;
70322;SDS011;57735;56.264;43.898;2023-02-02T13:30:40;32.67;;;12.77;;
70322;SDS011;57735;56.264;43.898;2023-02-02T13:33:22;39.15;;;13.93;;
70322;SDS011;57735;56.264;43.898;2023-02-02T13:36:40;34.08;;;11.45;;
70322;SDS011;57735;56.264;43.898;2023-02-02T13:38:56;35.30;;;11.35;;
70322;SDS011;57735;56.264;43.898;2023-02-02T13:41:31;38.67;;;13.07;;
70322;SDS011;57735;56.264;43.898;2023-02-02T13:46:38;43.22;;;14.95;;
70322;SDS011;57735;56.264;43.898;2023-02-02T13:49:23;44.22;;;16.10;;
70322;SDS011;57735;56.264;43.898;2023-02-02T14:00:34;34.95;;;12.60;;
70322;SDS011;57735;56.264;43.898;2023-02-02T14:03:27;31.73;;;12.27;;
70322;SDS011;57735;56.264;43.898;2023-02-02T14:06:14;32.78;;;13.43;;
70322;SDS011;57735;56.264;43.898;2023-02-02T14:08:47;33.88;;;13.23;;
70322;SDS011;57735;56.264;43.898;2023-02-02T14:14:16;33.28;;;12.30;;
70322;SDS011;57735;56.264;43.898;2023-02-02T14:19:56;34.25;;;11.80;;
70322;SDS011;57735;56.264;43.898;2023-02-02T14:22:43;27.50;;;11.55;;
70322;SDS011;57735;56.264;43.898;2023-02-02T14:28:06;32.17;;;13.20;;
70322;SDS011;57735;56.264;43.898;2023-02-02T14:30:40;25.88;;;10.60;;
70322;SDS011;57735;56.264;43.898;2023-02-02T14:35:54;34.88;;;13.82;;
70322;SDS011;57735;56.264;43.898;2023-02-02T14:44:33;44.75;;;14.32;;
70322;SDS011;57735;56.264;43.898;2023-02-02T14:47:37;32.83;;;13.35;;
70322;SDS011;57735;56.264;43.898;2023-02-02T14:50:23;29.45;;;11.07;;
70322;SDS011;57735;56.264;43.898;2023-02-02T14:58:33;30.17;;;11.85;;
70322;SDS011;57735;56.264;43.898;2023-02-02T15:01:12;33.50;;;10.68;;
70322;SDS011;57735;56.264;43.898;2023-02-02T15:06:49;26.52;;;10.85;;
70322;SDS011;57735;56.264;43.898;2023-02-02T15:09:25;36.55;;;11.80;;
70322;SDS011;57735;56.264;43.898;2023-02-02T15:17:59;28.35;;;10.55;;
70322;SDS011;57735;56.264;43.898;2023-02-02T15:20:43;45.28;;;18.70;;
70322;SDS011;57735;56.264;43.898;2023-02-02T15:23:33;36.90;;;13.68;;
70322;SDS011;57735;56.264;43.898;2023-02-02T15:26:12;31.02;;;13.00;;
70322;SDS011;57735;56.264;43.898;2023-02-02T15:28:51;34.55;;;12.50;;
70322;SDS011;57735;56.264;43.898;2023-02-02T15:31:45;31.27;;;12.45;;
70322;SDS011;57735;56.264;43.898;2023-02-02T15:34:25;53.20;;;21.73;;
70322;SDS011;57735;56.264;43.898;2023-02-02T15:37:15;37.45;;;14.57;;
70322;SDS011;57735;56.264;43.898;2023-02-02T15:39:56;29.67;;;11.65;;
70322;SDS011;57735;56.264;43.898;2023-02-02T15:42:40;28.33;;;11.15;;
70322;SDS011;57735;56.264;43.898;2023-02-02T15:47:58;28.95;;;10.75;;
70322;SDS011;57735;56.264;43.898;2023-02-02T15:50:29;24.52;;;10.05;;
70322;SDS011;57735;56.264;43.898;2023-02-02T15:53:00;30.23;;;10.30;;
70322;SDS011;57735;56.264;43.898;2023-02-02T15:55:33;26.13;;;10.05;;
70322;SDS011;57735;56.264;43.898;2023-02-02T15:58:38;25.15;;;9.45;;
70322;SDS011;57735;56.264;43.898;2023-02-02T16:01:13;31.70;;;10.02;;
70322;SDS011;57735;56.264;43.898;2023-02-02T16:03:57;30.30;;;9.73;;
70322;SDS011;57735;56.264;43.898;2023-02-02T16:06:34;31.60;;;11.85;;
70322;SDS011;57735;56.264;43.898;2023-02-02T16:09:06;22.88;;;9.93;;
70322;SDS011;57735;56.264;43.898;2023-02-02T16:11:40;34.63;;;12.07;;
70322;SDS011;57735;56.264;43.898;2023-02-02T16:14:13;28.25;;;10.05;;
70322;SDS011;57735;56.264;43.898;2023-02-02T16:16:48;24.92;;;9.40;;
70322;SDS011;57735;56.264;43.898;2023-02-02T16:19:23;29.77;;;9.55;;
70322;SDS011;57735;56.264;43.898;2023-02-02T16:21:57;26.30;;;10.00;;
70322;SDS011;57735;56.264;43.898;2023-02-02T16:24:34;30.58;;;13.27;;
70322;SDS011;57735;56.264;43.898;2023-02-02T16:27:12;49.83;;;19.17;;
70322;SDS011;57735;56.264;43.898;2023-02-02T16:29:47;30.23;;;11.82;;
70322;SDS011;57735;56.264;43.898;2023-02-02T16:32:40;25.38;;;10.57;;
70322;SDS011;57735;56.264;43.898;2023-02-02T16:35:30;28.98;;;10.73;;
70322;SDS011;57735;56.264;43.898;2023-02-02T16:38:12;21.75;;;9.63;;
70322;SDS011;57735;56.264;43.898;2023-02-02T16:41:07;24.27;;;10.40;;
70322;SDS011;57735;56.264;43.898;2023-02-02T16:43:40;32.08;;;11.60;;
70322;SDS011;57735;56.264;43.898;2023-02-02T16:46:13;36.13;;;11.65;;
70322;SDS011;57735;56.264;43.898;2023-02-02T16:48:56;31.70;;;12.30;;
70322;SDS011;57735;56.264;43.898;2023-02-02T16:51:29;34.83;;;11.05;;
70322;SDS011;57735;56.264;43.898;2023-02-02T16:59:26;30.88;;;11.25;;
70322;SDS011;57735;56.264;43.898;2023-02-02T17:02:03;31.83;;;11.15;;
70322;SDS011;57735;56.264;43.898;2023-02-02T17:04:39;28.38;;;11.50;;
70322;SDS011;57735;56.264;43.898;2023-02-02T17:07:17;29.08;;;11.68;;
70322;SDS011;57735;56.264;43.898;2023-02-02T17:09:50;32.88;;;11.52;;
70322;SDS011;57735;56.264;43.898;2023-02-02T17:13:01;29.77;;;10.93;;
70322;SDS011;57735;56.264;43.898;2023-02-02T17:15:34;30.83;;;11.02;;
70322;SDS011;57735;56.264;43.898;2023-02-02T17:18:05;31.10;;;12.38;;
70322;SDS011;57735;56.264;43.898;2023-02-02T17:20:38;38.63;;;13.05;;
70322;SDS011;57735;56.264;43.898;2023-02-02T17:23:13;31.98;;;12.20;;
70322;SDS011;57735;56.264;43.898;2023-02-02T17:25:47;34.47;;;12.98;;
70322;SDS011;57735;56.264;43.898;2023-02-02T17:28:19;34.47;;;12.30;;
70322;SDS011;57735;56.264;43.898;2023-02-02T17:30:56;29.63;;;11.38;;
70322;SDS011;57735;56.264;43.898;2023-02-02T17:33:30;31.10;;;11.13;;
70322;SDS011;57735;56.264;43.898;2023-02-02T17:36:03;35.10;;;12.57;;
70322;SDS011;57735;56.264;43.898;2023-02-02T17:38:34;36.53;;;12.23;;
70322;SDS011;57735;56.264;43.898;2023-02-02T17:41:05;30.90;;;11.82;;
70322;SDS011;57735;56.264;43.898;2023-02-02T17:43:36;36.65;;;11.32;;